Time;durP1;ratioP1;P1;durP2;ratioP2;P2;SDS_P1;SDS_P2;PMS_P1;PMS_P2;Temp;Humidity;BMP_temperature;BMP_pressure;BME280_temperature;BME280_humidity;BME280_pressure;Samples;Min_cycle;Max_cycle;Signal;HPM_P1;HPM_P2
2022/02/06 00:01:53;;;;;;;;;;;7.20;99.90;;;;;;4997436;28;19929;-76
2022/02/06 00:04:20;;;;;;;;;;;7.20;99.90;;;;;;5002364;28;19956;-76
2022/02/06 00:06:46;;;;;;;;;;;7.30;99.90;;;;;;5002586;28;20691;-76
2022/02/06 00:09:13;;;;;;;;;;;7.30;99.90;;;;;;5005621;28;19931;-76
2022/02/06 00:11:41;;;;;;;;;;;7.30;99.90;;;;;;5003944;28;19929;-76
2022/02/06 00:14:08;;;;;;;;;;;7.30;99.90;;;;;;5003214;28;20299;-76
2022/02/06 00:16:35;;;;;;;;;;;7.30;99.90;;;;;;5003838;28;20273;-76
2022/02/06 00:19:06;;;;;;;;;;;7.30;99.90;;;;;;5012014;28;19933;-76
2022/02/06 00:21:34;;;;;;;;;;;7.30;99.90;;;;;;5001923;28;19926;-76
2022/02/06 00:24:03;;;;;;;;;;;7.40;99.90;;;;;;5002667;28;19932;-76
2022/02/06 00:26:36;;;;;;;;;;;7.30;99.90;;;;;;4996779;28;19936;-76
2022/02/06 00:29:18;;;;;;;;;;;7.30;99.90;;;;;;4996008;28;19972;-75
2022/02/06 00:31:56;;;;;;;;;;;7.30;99.90;;;;;;4997442;28;19932;-76
2022/02/06 00:39:58;;;;;;;;;;;7.30;99.90;;;;;;4996737;28;19932;-76
2022/02/06 00:42:25;;;;;;;;;;;7.40;99.90;;;;;;5000066;28;19965;-77
2022/02/06 00:44:53;;;;;;;;;;;7.40;99.90;;;;;;5004159;28;20020;-76
2022/02/06 00:47:20;;;;;;;;;;;7.50;99.90;;;;;;5013147;28;19934;-76
2022/02/06 00:49:47;;;;;;;;;;;7.50;99.90;;;;;;4996687;28;20017;-76
2022/02/06 00:52:15;;;;;;;;;;;7.50;99.90;;;;;;5005649;28;19925;-76
2022/02/06 00:54:42;;;;;;;;;;;7.50;99.90;;;;;;5012702;28;19929;-76
2022/02/06 00:57:09;;;;;;;;;;;7.50;99.90;;;;;;5009953;28;19931;-76
2022/02/06 00:59:35;;;;;;;;;;;7.60;99.90;;;;;;4996946;28;19926;-76
2022/02/06 01:02:04;;;;;;;;;;;7.60;99.90;;;;;;5001948;28;19925;-77
2022/02/06 01:04:34;;;;;;;;;;;7.60;99.90;;;;;;5001476;28;19932;-76
2022/02/06 01:07:00;;;;;;;;;;;7.60;99.90;;;;;;5016400;28;19925;-76
2022/02/06 01:09:27;;;;;;;;;;;7.60;99.90;;;;;;5000900;28;20043;-76
2022/02/06 01:11:55;;;;;;;;;;;7.60;99.90;;;;;;5007512;28;19932;-76
2022/02/06 01:14:31;;;;;;;;;;;7.70;99.90;;;;;;5011354;28;19965;-76
2022/02/06 01:17:06;;;;;;;;;;;7.60;99.90;;;;;;5006858;28;19925;-76
2022/02/06 01:19:42;;;;;;;;;;;7.70;99.90;;;;;;4995249;28;20449;-75
2022/02/06 01:22:12;;;;;;;;;;;7.80;99.90;;;;;;5002067;28;20296;-76
2022/02/06 01:24:43;;;;;;;;;;;7.70;99.90;;;;;;5000649;28;19925;-75
2022/02/06 01:27:14;;;;;;;;;;;7.80;99.90;;;;;;5007780;28;20012;-76
2022/02/06 01:29:48;;;;;;;;;;;7.80;99.90;;;;;;5013942;28;20332;-76
2022/02/06 01:32:18;;;;;;;;;;;7.80;99.90;;;;;;5007934;28;19972;-77
2022/02/06 01:34:51;;;;;;;;;;;7.80;99.90;;;;;;5014939;28;20355;-76
2022/02/06 01:37:25;;;;;;;;;;;7.80;99.90;;;;;;5011931;28;19983;-76
2022/02/06 01:42:41;;;;;;;;;;;7.90;99.90;;;;;;5005881;28;19933;-76
2022/02/06 02:04:33;;;;;;;;;;;7.40;99.90;;;;;;4995635;28;19968;-76
2022/02/06 02:07:26;;;;;;;;;;;7.30;99.90;;;;;;4997094;28;20016;-75
2022/02/06 02:10:13;;;;;;;;;;;7.30;99.90;;;;;;4998028;28;20377;-75
2022/02/06 02:12:55;;;;;;;;;;;7.30;99.90;;;;;;5003966;28;19926;-75
2022/02/06 02:18:24;;;;;;;;;;;7.30;99.90;;;;;;5000985;28;19936;-75
2022/02/06 02:21:25;;;;;;;;;;;7.20;99.90;;;;;;5013201;28;19932;-75
2022/02/06 02:26:53;;;;;;;;;;;7.20;99.90;;;;;;4994393;28;19977;-75
2022/02/06 02:43:19;;;;;;;;;;;7.10;99.90;;;;;;5004632;28;19932;-75
2022/02/06 02:46:03;;;;;;;;;;;7.10;99.90;;;;;;5009022;28;20020;-75
2022/02/06 02:48:32;;;;;;;;;;;7.10;99.90;;;;;;5006673;28;20202;-75
2022/02/06 02:51:03;;;;;;;;;;;7.20;99.90;;;;;;5012282;28;19930;-75
2022/02/06 02:53:36;;;;;;;;;;;7.30;99.90;;;;;;5009637;28;20016;-75
2022/02/06 02:56:15;;;;;;;;;;;7.30;99.90;;;;;;5004166;28;19936;-75
2022/02/06 02:58:51;;;;;;;;;;;7.30;99.90;;;;;;5005690;28;19932;-74
2022/02/06 03:01:26;;;;;;;;;;;7.30;99.90;;;;;;5010110;28;19929;-74
2022/02/06 03:03:53;;;;;;;;;;;7.30;99.90;;;;;;5003331;28;19948;-75
2022/02/06 03:06:20;;;;;;;;;;;7.30;99.90;;;;;;5001437;28;20448;-74
2022/02/06 03:08:49;;;;;;;;;;;7.30;99.90;;;;;;5002492;28;20248;-75
2022/02/06 03:11:16;;;;;;;;;;;7.20;99.90;;;;;;5003068;28;19933;-75
2022/02/06 03:13:50;;;;;;;;;;;7.20;99.90;;;;;;5006929;28;19948;-74
2022/02/06 03:16:22;;;;;;;;;;;7.20;99.90;;;;;;5010617;28;19926;-75
2022/02/06 03:18:56;;;;;;;;;;;7.10;99.90;;;;;;4997606;28;20008;-74
2022/02/06 03:21:25;;;;;;;;;;;7.10;99.90;;;;;;4998798;28;19926;-74
2022/02/06 03:23:58;;;;;;;;;;;7.00;99.90;;;;;;5010336;28;19925;-74
2022/02/06 03:26:25;;;;;;;;;;;7.00;99.90;;;;;;5010835;28;20020;-74
2022/02/06 03:28:53;;;;;;;;;;;7.00;99.90;;;;;;5007667;28;19926;-75
2022/02/06 03:31:20;;;;;;;;;;;7.00;99.90;;;;;;4992778;28;20392;-74
2022/02/06 03:33:48;;;;;;;;;;;7.00;99.90;;;;;;4998620;28;19932;-75
2022/02/06 03:36:15;;;;;;;;;;;7.00;99.90;;;;;;4993783;28;20348;-74
2022/02/06 03:38:41;;;;;;;;;;;7.00;99.90;;;;;;5002655;28;20403;-74
2022/02/06 03:41:12;;;;;;;;;;;7.00;99.90;;;;;;5001100;28;19933;-75
2022/02/06 03:43:48;;;;;;;;;;;7.00;99.90;;;;;;5013152;28;19929;-74
2022/02/06 03:46:20;;;;;;;;;;;6.90;99.90;;;;;;4996950;28;19932;-74
2022/02/06 03:48:50;;;;;;;;;;;6.90;99.90;;;;;;5010233;28;19925;-75
2022/02/06 03:51:22;;;;;;;;;;;7.00;99.90;;;;;;5003862;28;19929;-74
2022/02/06 03:53:50;;;;;;;;;;;6.90;99.90;;;;;;5008108;28;19930;-74
2022/02/06 03:56:20;;;;;;;;;;;6.90;99.90;;;;;;5015138;28;20447;-75
2022/02/06 03:58:47;;;;;;;;;;;6.90;99.90;;;;;;5009874;28;19925;-75
2022/02/06 04:01:13;;;;;;;;;;;6.90;99.90;;;;;;5008160;28;19964;-76
2022/02/06 04:03:40;;;;;;;;;;;6.90;99.90;;;;;;5011280;28;19939;-76
2022/02/06 04:06:07;;;;;;;;;;;6.90;99.90;;;;;;4999053;28;20013;-75
2022/02/06 04:08:36;;;;;;;;;;;6.90;99.90;;;;;;5001282;28;19926;-76
2022/02/06 04:11:06;;;;;;;;;;;6.80;99.90;;;;;;5008496;28;19960;-76
2022/02/06 04:13:38;;;;;;;;;;;6.90;99.90;;;;;;5008036;28;19932;-75
2022/02/06 04:16:12;;;;;;;;;;;6.80;99.90;;;;;;5013605;28;19980;-76
2022/02/06 04:18:49;;;;;;;;;;;6.80;99.90;;;;;;4998875;28;20024;-76
2022/02/06 04:21:15;;;;;;;;;;;6.90;99.90;;;;;;5007496;28;19996;-76
2022/02/06 04:23:42;;;;;;;;;;;6.90;99.90;;;;;;4996742;28;20012;-76
2022/02/06 04:26:09;;;;;;;;;;;6.90;99.90;;;;;;5008534;28;19926;-76
2022/02/06 04:28:37;;;;;;;;;;;6.90;99.90;;;;;;5004293;28;19926;-76
2022/02/06 04:31:04;;;;;;;;;;;6.90;99.90;;;;;;5003915;28;19926;-76
2022/02/06 04:33:30;;;;;;;;;;;7.00;99.90;;;;;;5009507;28;19929;-76
2022/02/06 04:35:59;;;;;;;;;;;7.00;99.90;;;;;;5000968;28;19979;-76
2022/02/06 04:38:45;;;;;;;;;;;7.00;99.90;;;;;;5008126;28;20446;-76
2022/02/06 04:41:27;;;;;;;;;;;7.00;99.90;;;;;;5012169;28;20370;-76
2022/02/06 04:44:34;;;;;;;;;;;7.10;99.90;;;;;;5001179;28;19973;-76
2022/02/06 04:50:22;;;;;;;;;;;7.10;99.90;;;;;;5027237;28;19935;-73
2022/02/06 04:55:59;;;;;;;;;;;7.10;99.90;;;;;;5011944;28;20435;-76
2022/02/06 05:13:00;;;;;;;;;;;7.30;99.90;;;;;;4999212;28;19971;-76
2022/02/06 05:15:27;;;;;;;;;;;7.30;99.90;;;;;;5004474;28;19980;-75
2022/02/06 05:18:20;;;;;;;;;;;7.30;99.90;;;;;;5000221;28;19925;-75
2022/02/06 05:26:56;;;;;;;;;;;7.40;99.90;;;;;;4969050;28;19926;-75
2022/02/06 05:29:30;;;;;;;;;;;7.40;99.90;;;;;;5005364;28;19932;-76
2022/02/06 05:32:11;;;;;;;;;;;7.50;99.90;;;;;;5015087;28;19932;-75
2022/02/06 05:34:39;;;;;;;;;;;7.40;99.90;;;;;;5010450;28;19926;-76
2022/02/06 05:37:06;;;;;;;;;;;7.40;99.90;;;;;;4998823;28;19933;-75
2022/02/06 05:39:32;;;;;;;;;;;7.40;99.90;;;;;;5007373;28;19933;-76
2022/02/06 05:41:59;;;;;;;;;;;7.50;99.90;;;;;;5011721;28;19929;-76
2022/02/06 05:44:26;;;;;;;;;;;7.40;99.90;;;;;;5008879;28;19925;-76
2022/02/06 05:46:52;;;;;;;;;;;7.40;99.90;;;;;;5007868;28;19997;-77
2022/02/06 05:49:19;;;;;;;;;;;7.40;99.90;;;;;;5014537;28;20032;-77
2022/02/06 05:51:48;;;;;;;;;;;7.30;99.90;;;;;;5007777;28;20052;-77
2022/02/06 05:54:15;;;;;;;;;;;7.30;99.90;;;;;;5014410;28;19926;-76
2022/02/06 05:56:42;;;;;;;;;;;7.30;99.90;;;;;;4998983;28;19932;-77
2022/02/06 05:59:08;;;;;;;;;;;7.30;99.90;;;;;;5004550;28;19947;-76
2022/02/06 06:01:35;;;;;;;;;;;7.30;99.90;;;;;;5016481;28;19995;-76
2022/02/06 06:04:03;;;;;;;;;;;7.30;99.90;;;;;;5009432;28;20028;-77
2022/02/06 06:06:31;;;;;;;;;;;7.30;99.90;;;;;;5005751;28;19936;-76
2022/02/06 06:08:59;;;;;;;;;;;7.30;99.90;;;;;;5009272;28;19925;-76
2022/02/06 06:11:26;;;;;;;;;;;7.30;99.90;;;;;;5001886;28;19980;-76
2022/02/06 06:13:53;;;;;;;;;;;7.30;99.90;;;;;;4998196;28;20242;-77
2022/02/06 06:16:20;;;;;;;;;;;7.30;99.90;;;;;;5006164;28;19930;-77
2022/02/06 06:18:47;;;;;;;;;;;7.30;99.90;;;;;;5004974;28;19926;-76
2022/02/06 06:21:13;;;;;;;;;;;7.30;99.90;;;;;;5008261;28;20420;-76
2022/02/06 06:23:43;;;;;;;;;;;7.30;99.90;;;;;;5002243;28;19984;-76
2022/02/06 06:26:16;;;;;;;;;;;7.30;99.90;;;;;;4997819;28;19935;-76
2022/02/06 06:28:42;;;;;;;;;;;7.20;99.90;;;;;;5008231;28;20036;-75
2022/02/06 06:31:10;;;;;;;;;;;7.20;99.90;;;;;;5001044;28;19926;-75
2022/02/06 06:33:36;;;;;;;;;;;7.20;99.90;;;;;;5002029;28;20389;-75
2022/02/06 06:36:04;;;;;;;;;;;7.10;99.90;;;;;;5000740;28;19936;-76
2022/02/06 06:38:32;;;;;;;;;;;7.10;99.90;;;;;;5027773;28;19932;-75
2022/02/06 06:40:59;;;;;;;;;;;7.10;99.90;;;;;;5019821;28;19929;-74
2022/02/06 06:43:27;;;;;;;;;;;7.10;99.90;;;;;;5010903;28;19945;-76
2022/02/06 06:45:53;;;;;;;;;;;7.20;99.90;;;;;;5005486;28;19932;-76
2022/02/06 06:48:20;;;;;;;;;;;7.20;99.90;;;;;;5009619;28;20024;-76
2022/02/06 06:50:47;;;;;;;;;;;7.20;99.90;;;;;;5008806;28;20032;-76
2022/02/06 06:53:14;;;;;;;;;;;7.20;99.90;;;;;;5001095;28;19926;-76
2022/02/06 06:55:43;;;;;;;;;;;7.30;99.90;;;;;;4997048;28;19958;-76
2022/02/06 06:58:14;;;;;;;;;;;7.30;99.90;;;;;;5002202;28;19972;-76
2022/02/06 07:00:55;;;;;;;;;;;7.30;99.90;;;;;;5007500;28;19996;-75
2022/02/06 07:03:21;;;;;;;;;;;7.40;99.90;;;;;;5008783;28;20336;-76
2022/02/06 07:05:48;;;;;;;;;;;7.40;99.90;;;;;;5004713;28;19925;-76
2022/02/06 07:08:16;;;;;;;;;;;7.40;99.90;;;;;;5008658;28;20035;-76
2022/02/06 07:10:43;;;;;;;;;;;7.40;99.90;;;;;;5010560;28;19932;-76
2022/02/06 07:13:11;;;;;;;;;;;7.50;99.90;;;;;;5005160;28;19929;-76
2022/02/06 07:15:38;;;;;;;;;;;7.50;99.90;;;;;;5008297;28;20028;-74
2022/02/06 07:18:06;;;;;;;;;;;7.50;99.90;;;;;;5003213;28;19926;-75
2022/02/06 07:20:34;;;;;;;;;;;7.60;99.90;;;;;;5002679;28;19925;-75
2022/02/06 07:23:00;;;;;;;;;;;7.50;99.90;;;;;;5008508;28;20366;-76
2022/02/06 07:25:27;;;;;;;;;;;7.60;99.90;;;;;;5002582;28;19932;-76
2022/02/06 07:27:54;;;;;;;;;;;7.60;99.90;;;;;;5002375;28;19932;-74
2022/02/06 07:30:20;;;;;;;;;;;7.60;99.90;;;;;;5007243;28;19929;-74
2022/02/06 07:32:47;;;;;;;;;;;7.60;99.90;;;;;;5015100;28;19925;-75
2022/02/06 07:35:16;;;;;;;;;;;7.70;99.90;;;;;;5011290;28;20016;-74
2022/02/06 07:37:43;;;;;;;;;;;7.70;99.90;;;;;;5006380;28;20424;-74
2022/02/06 07:40:10;;;;;;;;;;;7.70;99.90;;;;;;5014695;28;19932;-76
2022/02/06 07:42:36;;;;;;;;;;;7.70;99.90;;;;;;5015946;28;20320;-75
2022/02/06 07:45:04;;;;;;;;;;;7.70;99.90;;;;;;4999738;28;20016;-74
2022/02/06 07:47:31;;;;;;;;;;;7.70;99.90;;;;;;4999730;28;19929;-74
2022/02/06 07:50:02;;;;;;;;;;;7.70;99.90;;;;;;5011977;28;19973;-75
2022/02/06 07:52:30;;;;;;;;;;;7.70;99.90;;;;;;5013901;28;19925;-75
2022/02/06 07:54:57;;;;;;;;;;;7.80;99.90;;;;;;5014388;28;19925;-75
2022/02/06 07:57:23;;;;;;;;;;;7.80;99.90;;;;;;5009796;28;19925;-76
2022/02/06 07:59:51;;;;;;;;;;;7.80;99.90;;;;;;4996162;28;20385;-76
2022/02/06 08:02:18;;;;;;;;;;;7.80;99.90;;;;;;5008423;28;19972;-75
2022/02/06 08:04:47;;;;;;;;;;;7.80;99.90;;;;;;5014125;28;20340;-75
2022/02/06 08:07:14;;;;;;;;;;;7.80;99.90;;;;;;5010642;28;20016;-75
2022/02/06 08:09:52;;;;;;;;;;;7.80;99.90;;;;;;5001549;28;19933;-75
2022/02/06 08:12:26;;;;;;;;;;;7.80;99.90;;;;;;5003711;28;20345;-75
2022/02/06 08:14:55;;;;;;;;;;;7.80;99.90;;;;;;4997391;28;19926;-75
2022/02/06 08:17:22;;;;;;;;;;;7.80;99.90;;;;;;5004561;28;20326;-74
2022/02/06 08:19:49;;;;;;;;;;;7.80;99.90;;;;;;5005754;28;20399;-74
2022/02/06 08:22:16;;;;;;;;;;;7.80;99.90;;;;;;5004821;28;19932;-74
2022/02/06 08:24:44;;;;;;;;;;;7.80;99.90;;;;;;5024780;28;19972;-73
2022/02/06 08:27:11;;;;;;;;;;;7.80;99.90;;;;;;5012005;28;19965;-73
2022/02/06 08:29:40;;;;;;;;;;;7.80;99.90;;;;;;5014098;28;20012;-72
2022/02/06 08:32:07;;;;;;;;;;;7.70;99.90;;;;;;5011611;28;19926;-75
2022/02/06 08:34:34;;;;;;;;;;;7.70;99.90;;;;;;5006200;28;20031;-73
2022/02/06 08:37:02;;;;;;;;;;;7.70;99.90;;;;;;5012731;28;19934;-73
2022/02/06 08:39:29;;;;;;;;;;;7.70;99.90;;;;;;4997530;28;19926;-73
2022/02/06 08:41:57;;;;;;;;;;;7.70;99.90;;;;;;5003965;28;20005;-72
2022/02/06 08:44:24;;;;;;;;;;;7.70;99.90;;;;;;4996250;28;19933;-74
2022/02/06 08:46:51;;;;;;;;;;;7.70;99.90;;;;;;4997884;28;19930;-73
2022/02/06 08:49:18;;;;;;;;;;;7.70;99.90;;;;;;4999614;28;19936;-73
2022/02/06 08:51:45;;;;;;;;;;;7.70;99.90;;;;;;4997237;28;19926;-72
2022/02/06 08:54:12;;;;;;;;;;;7.70;99.90;;;;;;5002914;28;20016;-72
2022/02/06 08:56:40;;;;;;;;;;;7.70;99.90;;;;;;5008982;28;20041;-73
2022/02/06 08:59:08;;;;;;;;;;;7.70;99.90;;;;;;4997629;28;19925;-72
2022/02/06 09:01:34;;;;;;;;;;;7.70;99.90;;;;;;4999049;28;19934;-72
2022/02/06 09:04:01;;;;;;;;;;;7.70;99.90;;;;;;5005049;28;19949;-72
2022/02/06 09:06:28;;;;;;;;;;;7.70;99.90;;;;;;5000594;28;19925;-73
2022/02/06 09:08:57;;;;;;;;;;;7.70;99.90;;;;;;5012769;28;19981;-72
2022/02/06 09:11:24;;;;;;;;;;;7.70;99.90;;;;;;5010560;28;19925;-73
2022/02/06 09:13:51;;;;;;;;;;;7.70;99.90;;;;;;5013053;28;19925;-72
2022/02/06 09:16:19;;;;;;;;;;;7.70;99.90;;;;;;4997598;28;19926;-73
2022/02/06 09:18:46;;;;;;;;;;;7.70;99.90;;;;;;5003017;28;19933;-73
2022/02/06 09:21:13;;;;;;;;;;;7.70;99.90;;;;;;5011805;28;19965;-72
2022/02/06 09:23:39;;;;;;;;;;;7.80;99.90;;;;;;5008284;28;19992;-73
2022/02/06 09:26:06;;;;;;;;;;;7.70;99.90;;;;;;5010508;28;20016;-73
2022/02/06 09:28:33;;;;;;;;;;;7.80;99.90;;;;;;4997087;28;19926;-73
2022/02/06 09:30:59;;;;;;;;;;;7.80;99.90;;;;;;5003077;28;19940;-73
2022/02/06 09:35:53;;;;;;;;;;;7.80;99.90;;;;;;5008273;28;19926;-68
2022/02/06 09:38:19;;;;;;;;;;;7.80;99.90;;;;;;5011801;28;20392;-67
2022/02/06 09:40:47;;;;;;;;;;;7.90;99.90;;;;;;5010873;28;19926;-67
2022/02/06 09:43:14;;;;;;;;;;;7.90;99.90;;;;;;5006942;28;20385;-67
2022/02/06 09:45:41;;;;;;;;;;;7.90;99.90;;;;;;5007966;28;19926;-67
2022/02/06 09:48:10;;;;;;;;;;;7.90;99.90;;;;;;5009407;28;20332;-73
2022/02/06 09:50:38;;;;;;;;;;;7.90;99.90;;;;;;5009240;28;20299;-73
2022/02/06 09:53:04;;;;;;;;;;;7.90;99.90;;;;;;5011975;28;19965;-75
2022/02/06 09:55:31;;;;;;;;;;;7.90;99.90;;;;;;5003266;28;19930;-70
2022/02/06 09:58:11;;;;;;;;;;;7.90;99.90;;;;;;5004315;28;20461;-70
2022/02/06 10:00:38;;;;;;;;;;;7.90;99.90;;;;;;5008170;28;19925;-72
2022/02/06 10:03:06;;;;;;;;;;;7.90;99.90;;;;;;5018731;28;19925;-73
2022/02/06 10:05:35;;;;;;;;;;;7.90;99.90;;;;;;5014521;28;19926;-72
2022/02/06 10:08:11;;;;;;;;;;;8.00;99.90;;;;;;5013137;28;20344;-71
2022/02/06 10:10:41;;;;;;;;;;;8.00;99.90;;;;;;5009369;28;19926;-72
2022/02/06 10:13:07;;;;;;;;;;;8.00;99.90;;;;;;5004067;28;19932;-72
2022/02/06 10:15:37;;;;;;;;;;;8.10;99.90;;;;;;5004141;28;19932;-71
2022/02/06 10:18:04;;;;;;;;;;;8.10;99.90;;;;;;4998378;28;19926;-70
2022/02/06 10:20:34;;;;;;;;;;;8.10;99.90;;;;;;5005646;28;19925;-71
2022/02/06 10:23:07;;;;;;;;;;;8.10;99.90;;;;;;5001262;28;19941;-69
2022/02/06 10:25:40;;;;;;;;;;;8.10;99.90;;;;;;5005285;28;19925;-68
2022/02/06 10:28:21;;;;;;;;;;;8.10;99.90;;;;;;5011251;28;19925;-72
2022/02/06 10:30:50;;;;;;;;;;;8.10;99.90;;;;;;5008396;28;20270;-72
2022/02/06 10:33:18;;;;;;;;;;;8.20;99.90;;;;;;5003744;28;20016;-72
2022/02/06 10:35:47;;;;;;;;;;;8.20;99.90;;;;;;5001567;28;20392;-73
2022/02/06 10:38:16;;;;;;;;;;;8.20;99.90;;;;;;4998267;28;19934;-80
2022/02/06 10:40:44;;;;;;;;;;;8.20;99.90;;;;;;5029318;28;19925;-81
2022/02/06 10:43:11;;;;;;;;;;;8.20;99.90;;;;;;5023901;28;20035;-78
2022/02/06 10:45:38;;;;;;;;;;;8.20;99.90;;;;;;5030461;28;19925;-80
2022/02/06 10:48:22;;;;;;;;;;;8.20;99.90;;;;;;5025179;28;19930;-78
2022/02/06 10:50:49;;;;;;;;;;;8.30;99.90;;;;;;5033690;28;19925;-80
2022/02/06 10:53:18;;;;;;;;;;;8.30;99.90;;;;;;5026893;28;19954;-80
2022/02/06 10:55:51;;;;;;;;;;;8.30;99.90;;;;;;5027257;28;19925;-81
2022/02/06 10:58:18;;;;;;;;;;;8.30;99.90;;;;;;5029666;28;19925;-79
2022/02/06 11:00:45;;;;;;;;;;;8.30;99.90;;;;;;5034180;28;19933;-80
2022/02/06 11:03:22;;;;;;;;;;;8.40;99.90;;;;;;5033468;28;19956;-81
2022/02/06 11:05:51;;;;;;;;;;;8.40;99.90;;;;;;5019521;28;19926;-81
2022/02/06 11:08:28;;;;;;;;;;;8.50;99.90;;;;;;5018625;28;19926;-79
2022/02/06 11:10:58;;;;;;;;;;;8.60;99.90;;;;;;5025703;28;19989;-81
2022/02/06 11:13:25;;;;;;;;;;;8.70;99.90;;;;;;5028695;28;20000;-80
2022/02/06 11:15:52;;;;;;;;;;;8.80;99.90;;;;;;5039078;28;19917;-74
2022/02/06 11:18:22;;;;;;;;;;;9.00;99.90;;;;;;5023788;28;19972;-80
2022/02/06 11:20:55;;;;;;;;;;;9.20;99.90;;;;;;5026665;28;19932;-80
2022/02/06 11:23:22;;;;;;;;;;;9.20;99.90;;;;;;5030475;28;19979;-80
2022/02/06 11:25:50;;;;;;;;;;;9.40;99.90;;;;;;5026659;28;20363;-82
2022/02/06 11:28:17;;;;;;;;;;;9.50;99.90;;;;;;5037281;28;19926;-81
2022/02/06 11:30:43;;;;;;;;;;;9.60;99.90;;;;;;5024441;28;20001;-79
2022/02/06 11:33:10;;;;;;;;;;;9.70;99.90;;;;;;5036000;28;19929;-79
2022/02/06 11:35:39;;;;;;;;;;;9.70;99.90;;;;;;5104768;22;19917;-76
2022/02/06 11:44:21;;;;;;;;;;;9.80;99.90;;;;;;5006544;28;19961;-79
2022/02/06 11:46:50;;;;;;;;;;;9.80;99.90;;;;;;4997050;28;19933;-78
2022/02/06 11:49:18;;;;;;;;;;;9.90;99.90;;;;;;5011716;28;19973;-78
2022/02/06 11:51:52;;;;;;;;;;;9.80;99.90;;;;;;5008836;28;19933;-80
2022/02/06 11:54:26;;;;;;;;;;;9.80;99.90;;;;;;5010451;28;19926;-79
2022/02/06 11:57:18;;;;;;;;;;;9.80;99.90;;;;;;5004823;28;19926;-80
2022/02/06 12:00:10;;;;;;;;;;;9.70;99.90;;;;;;5008809;28;19918;-80
2022/02/06 12:02:38;;;;;;;;;;;9.60;99.90;;;;;;5008619;28;19949;-82
2022/02/06 12:05:14;;;;;;;;;;;9.40;99.90;;;;;;5000491;28;19926;-79
2022/02/06 12:08:02;;;;;;;;;;;9.30;99.90;;;;;;5010490;28;20017;-82
2022/02/06 12:10:44;;;;;;;;;;;9.30;99.90;;;;;;5008229;28;19968;-79
2022/02/06 12:13:27;;;;;;;;;;;9.20;99.90;;;;;;5001788;28;19926;-80
2022/02/06 12:15:57;;;;;;;;;;;8.40;99.90;;;;;;4990458;28;20255;-79
2022/02/06 12:18:24;;;;;;;;;;;7.70;99.90;;;;;;4998872;28;19930;-79
2022/02/06 12:20:53;;;;;;;;;;;7.50;99.90;;;;;;5000868;28;20016;-79
2022/02/06 12:23:37;;;;;;;;;;;7.40;99.90;;;;;;5010249;28;19929;-80
2022/02/06 12:26:04;;;;;;;;;;;7.30;99.90;;;;;;5008675;28;19932;-80
2022/02/06 12:28:40;;;;;;;;;;;7.40;99.90;;;;;;5007425;28;19934;-80
2022/02/06 12:31:28;;;;;;;;;;;7.40;99.90;;;;;;5002004;28;19932;-80
2022/02/06 12:34:10;;;;;;;;;;;7.40;99.90;;;;;;5005852;28;19916;-80
2022/02/06 12:39:36;;;;;;;;;;;7.40;99.90;;;;;;4991529;28;19926;-77
2022/02/06 12:42:03;;;;;;;;;;;7.40;99.90;;;;;;5016747;28;19913;-72
2022/02/06 12:44:32;;;;;;;;;;;7.40;99.90;;;;;;5022890;28;19914;-70
2022/02/06 12:47:00;;;;;;;;;;;7.40;99.90;;;;;;5017615;28;19948;-72
2022/02/06 12:49:29;;;;;;;;;;;7.40;99.90;;;;;;5021101;28;19993;-79
2022/02/06 12:51:57;;;;;;;;;;;7.40;99.90;;;;;;5017217;28;19960;-79
2022/02/06 12:54:24;;;;;;;;;;;7.40;99.90;;;;;;5013309;28;19917;-78
2022/02/06 12:56:54;;;;;;;;;;;7.40;99.90;;;;;;5002049;28;19926;-74
2022/02/06 12:59:22;;;;;;;;;;;7.40;99.90;;;;;;5007217;28;19921;-71
2022/02/06 13:01:50;;;;;;;;;;;7.50;99.90;;;;;;5021580;28;19949;-68
2022/02/06 13:04:17;;;;;;;;;;;7.60;99.90;;;;;;5021959;28;19910;-69
2022/02/06 13:06:45;;;;;;;;;;;7.60;99.90;;;;;;5021824;28;19929;-69
2022/02/06 13:09:19;;;;;;;;;;;7.70;99.90;;;;;;5021841;28;19985;-66
2022/02/06 13:11:48;;;;;;;;;;;7.70;99.90;;;;;;5020861;28;19914;-66
2022/02/06 13:14:22;;;;;;;;;;;7.90;99.90;;;;;;5009628;28;19910;-67
2022/02/06 13:17:00;;;;;;;;;;;7.90;99.90;;;;;;5018128;28;19922;-83
2022/02/06 13:19:36;;;;;;;;;;;8.00;99.90;;;;;;5014405;28;19917;-80
2022/02/06 13:22:25;;;;;;;;;;;8.10;99.90;;;;;;5015960;28;19934;-77
2022/02/06 13:27:58;;;;;;;;;;;8.30;99.90;;;;;;5017459;28;19926;-71
2022/02/06 13:30:43;;;;;;;;;;;8.40;99.90;;;;;;5006277;28;19917;-68
2022/02/06 13:33:16;;;;;;;;;;;8.40;99.90;;;;;;5028389;28;19917;-85
2022/02/06 13:38:19;;;;;;;;;;;8.50;99.90;;;;;;5690765;22;19958;-78
2022/02/06 13:40:49;;;;;;;;;;;8.50;99.90;;;;;;5058923;28;19909;-82
2022/02/06 13:43:18;;;;;;;;;;;8.50;99.90;;;;;;5060537;28;19973;-68
2022/02/06 13:45:45;;;;;;;;;;;8.50;99.90;;;;;;5041892;28;20027;-79
2022/02/06 13:48:15;;;;;;;;;;;8.50;99.90;;;;;;5024931;28;19925;-79
2022/02/06 13:50:46;;;;;;;;;;;8.50;99.90;;;;;;5015709;28;19926;-78
2022/02/06 13:53:14;;;;;;;;;;;8.50;99.90;;;;;;5016995;28;20444;-78
2022/02/06 13:55:45;;;;;;;;;;;8.60;99.90;;;;;;5020224;28;20020;-78
2022/02/06 13:58:13;;;;;;;;;;;8.60;99.90;;;;;;5019990;28;19956;-79
2022/02/06 14:00:52;;;;;;;;;;;8.70;99.90;;;;;;5055032;28;19972;-66
2022/02/06 14:03:20;;;;;;;;;;;8.60;99.90;;;;;;5060202;28;20025;-66
2022/02/06 14:14:15;;;;;;;;;;;8.70;99.90;;;;;;5101829;22;19909;-82
2022/02/06 14:16:43;;;;;;;;;;;8.70;99.90;;;;;;5036206;28;19924;-70
2022/02/06 14:19:15;;;;;;;;;;;8.70;99.90;;;;;;5039328;28;19914;-67
2022/02/06 14:21:44;;;;;;;;;;;8.50;99.90;;;;;;5059076;28;19992;-66
2022/02/06 14:24:13;;;;;;;;;;;8.50;99.90;;;;;;5058426;28;19936;-73
2022/02/06 14:26:55;;;;;;;;;;;8.50;99.90;;;;;;5044258;28;19965;-72
2022/02/06 14:29:22;;;;;;;;;;;8.60;99.90;;;;;;5052544;28;19980;-78
2022/02/06 14:31:49;;;;;;;;;;;8.40;99.90;;;;;;5037617;28;19933;-82
2022/02/06 14:34:19;;;;;;;;;;;8.40;99.90;;;;;;5037535;28;19930;-80
2022/02/06 14:37:06;;;;;;;;;;;8.50;99.90;;;;;;5037059;28;19920;-85
2022/02/06 14:39:36;;;;;;;;;;;8.50;99.90;;;;;;5047839;28;19925;-86
2022/02/06 14:42:09;;;;;;;;;;;8.60;99.90;;;;;;5046946;28;19925;-69
2022/02/06 14:44:36;;;;;;;;;;;8.70;99.90;;;;;;5059193;28;19925;-72
2022/02/06 14:47:03;;;;;;;;;;;8.80;99.90;;;;;;5059519;28;19947;-70
2022/02/06 14:49:31;;;;;;;;;;;9.00;99.90;;;;;;5059562;28;19937;-70
2022/02/06 14:54:38;;;;;;;;;;;9.10;99.90;;;;;;5085578;22;19909;-68
2022/02/06 14:57:04;;;;;;;;;;;9.10;99.90;;;;;;5059419;28;19937;-69
2022/02/06 14:59:33;;;;;;;;;;;9.10;99.90;;;;;;5059257;28;19909;-69
2022/02/06 15:02:00;;;;;;;;;;;9.10;99.90;;;;;;5059287;28;19931;-67
2022/02/06 15:04:26;;;;;;;;;;;9.10;99.90;;;;;;5059051;28;19916;-68
2022/02/06 15:06:54;;;;;;;;;;;9.10;99.90;;;;;;5051280;22;19956;-76
2022/02/06 15:09:22;;;;;;;;;;;9.20;99.90;;;;;;5005909;28;20384;-77
2022/02/06 15:11:49;;;;;;;;;;;9.20;99.90;;;;;;5006082;28;20024;-77
2022/02/06 15:14:16;;;;;;;;;;;9.20;99.90;;;;;;5012708;28;19933;-77
2022/02/06 15:16:44;;;;;;;;;;;9.20;99.90;;;;;;5002967;28;19929;-77
2022/02/06 15:19:17;;;;;;;;;;;9.20;99.90;;;;;;5009539;28;20398;-77
2022/02/06 15:21:44;;;;;;;;;;;9.20;99.90;;;;;;5006530;28;20496;-79
2022/02/06 15:24:12;;;;;;;;;;;9.10;99.90;;;;;;5009426;28;19926;-78
2022/02/06 15:26:39;;;;;;;;;;;9.10;99.90;;;;;;5009617;28;19963;-77
2022/02/06 15:29:06;;;;;;;;;;;9.10;99.90;;;;;;5011264;28;20032;-78
2022/02/06 15:31:33;;;;;;;;;;;9.00;99.90;;;;;;5009833;28;19932;-78
2022/02/06 15:34:00;;;;;;;;;;;9.00;99.90;;;;;;5009179;28;20008;-78
2022/02/06 15:36:28;;;;;;;;;;;9.10;99.90;;;;;;5010386;28;19943;-79
2022/02/06 15:38:55;;;;;;;;;;;9.10;99.90;;;;;;5010202;28;19926;-79
2022/02/06 15:41:24;;;;;;;;;;;9.10;99.90;;;;;;4999311;28;19971;-78
2022/02/06 15:43:51;;;;;;;;;;;9.00;99.90;;;;;;4999022;28;19930;-78
2022/02/06 15:46:17;;;;;;;;;;;8.60;99.90;;;;;;4991549;28;19934;-77
2022/02/06 15:48:44;;;;;;;;;;;8.30;99.90;;;;;;4997755;28;19934;-76
2022/02/06 15:51:11;;;;;;;;;;;8.10;99.90;;;;;;4995511;28;19927;-78
2022/02/06 15:53:38;;;;;;;;;;;8.10;99.90;;;;;;4997878;28;19933;-78
2022/02/06 15:56:05;;;;;;;;;;;8.10;99.90;;;;;;4997132;28;20316;-77
2022/02/06 15:58:33;;;;;;;;;;;8.10;99.90;;;;;;4990321;28;19926;-76
2022/02/06 16:01:00;;;;;;;;;;;8.10;99.90;;;;;;4990650;28;19926;-76
2022/02/06 16:03:26;;;;;;;;;;;8.20;99.90;;;;;;4992582;28;19932;-77
2022/02/06 16:05:53;;;;;;;;;;;8.30;99.90;;;;;;4990401;28;19932;-77
2022/02/06 16:08:20;;;;;;;;;;;8.40;99.90;;;;;;4990006;28;19933;-74
2022/02/06 16:10:51;;;;;;;;;;;8.40;99.90;;;;;;4991689;28;19934;-79
2022/02/06 16:13:17;;;;;;;;;;;8.40;99.90;;;;;;4993045;28;19932;-77
2022/02/06 16:15:45;;;;;;;;;;;8.40;99.90;;;;;;4990143;28;20014;-77
2022/02/06 16:18:12;;;;;;;;;;;8.50;99.90;;;;;;4988892;28;19926;-76
2022/02/06 16:20:39;;;;;;;;;;;8.50;99.90;;;;;;4992959;28;20373;-76
2022/02/06 16:23:05;;;;;;;;;;;8.60;99.90;;;;;;4988386;28;20349;-76
2022/02/06 16:25:32;;;;;;;;;;;8.60;99.90;;;;;;4993190;28;19926;-76
2022/02/06 16:27:59;;;;;;;;;;;8.60;99.90;;;;;;4986104;28;19969;-76
2022/02/06 16:30:26;;;;;;;;;;;8.60;99.90;;;;;;4987223;28;19934;-76